sensor_id;sensor_type;location;lat;lon;timestamp;pressure;altitude;pressure_sealevel;temperature;humidity
79250;BME280;68679;51.030;7.584;2024-03-08T00:02:23;99098.59;;;1.34;67.29
79250;BME280;68679;51.030;7.584;2024-03-08T00:04:49;99095.41;;;1.32;67.05
79250;BME280;68679;51.030;7.584;2024-03-08T00:07:14;99099.56;;;1.33;67.24
79250;BME280;68679;51.030;7.584;2024-03-08T00:09:39;99101.78;;;1.29;67.18
79250;BME280;68679;51.030;7.584;2024-03-08T00:12:05;99092.06;;;1.25;67.04
79250;BME280;68679;51.030;7.584;2024-03-08T00:14:31;99099.81;;;1.25;67.23
79250;BME280;68679;51.030;7.584;2024-03-08T00:16:56;99092.84;;;1.25;67.38
79250;BME280;68679;51.030;7.584;2024-03-08T00:19:21;99095.44;;;1.25;67.20
79250;BME280;68679;51.030;7.584;2024-03-08T00:21:47;99090.91;;;1.21;67.41
79250;BME280;68679;51.030;7.584;2024-03-08T00:24:12;99091.06;;;1.26;67.40
79250;BME280;68679;51.030;7.584;2024-03-08T00:26:37;99094.09;;;1.23;67.31
79250;BME280;68679;51.030;7.584;2024-03-08T00:29:03;99089.09;;;1.21;67.40
79250;BME280;68679;51.030;7.584;2024-03-08T00:31:28;99087.53;;;1.20;67.38
79250;BME280;68679;51.030;7.584;2024-03-08T00:33:56;99079.22;;;1.18;67.49
79250;BME280;68679;51.030;7.584;2024-03-08T00:36:22;99084.38;;;1.18;67.63
79250;BME280;68679;51.030;7.584;2024-03-08T00:38:47;99082.78;;;1.17;67.55
79250;BME280;68679;51.030;7.584;2024-03-08T00:41:12;99074.66;;;1.14;67.20
79250;BME280;68679;51.030;7.584;2024-03-08T00:43:38;99077.47;;;1.12;67.36
79250;BME280;68679;51.030;7.584;2024-03-08T00:46:03;99070.09;;;1.09;67.54
79250;BME280;68679;51.030;7.584;2024-03-08T00:48:28;99070.31;;;1.07;67.73
79250;BME280;68679;51.030;7.584;2024-03-08T00:50:54;99064.81;;;1.04;67.51
79250;BME280;68679;51.030;7.584;2024-03-08T00:53:19;99064.03;;;1.03;67.53
79250;BME280;68679;51.030;7.584;2024-03-08T00:55:44;99066.75;;;1.08;67.70
79250;BME280;68679;51.030;7.584;2024-03-08T00:58:12;99067.16;;;1.05;67.69
79250;BME280;68679;51.030;7.584;2024-03-08T01:00:37;99061.00;;;1.06;67.65
79250;BME280;68679;51.030;7.584;2024-03-08T01:03:04;99063.41;;;1.01;67.67
79250;BME280;68679;51.030;7.584;2024-03-08T01:05:29;99057.06;;;1.04;67.75
79250;BME280;68679;51.030;7.584;2024-03-08T01:07:55;99057.25;;;1.02;67.49
79250;BME280;68679;51.030;7.584;2024-03-08T01:10:20;99055.31;;;0.98;67.65
79250;BME280;68679;51.030;7.584;2024-03-08T01:12:45;99054.53;;;0.97;67.84
79250;BME280;68679;51.030;7.584;2024-03-08T01:15:11;99048.34;;;0.98;67.71
79250;BME280;68679;51.030;7.584;2024-03-08T01:17:36;99041.00;;;0.95;67.70
79250;BME280;68679;51.030;7.584;2024-03-08T01:20:03;99037.63;;;0.95;67.96
79250;BME280;68679;51.030;7.584;2024-03-08T01:22:29;99034.06;;;0.96;67.98
79250;BME280;68679;51.030;7.584;2024-03-08T01:24:55;99032.25;;;0.96;68.02
79250;BME280;68679;51.030;7.584;2024-03-08T01:27:20;99027.88;;;0.97;68.06
79250;BME280;68679;51.030;7.584;2024-03-08T01:29:46;99018.00;;;0.94;67.78
79250;BME280;68679;51.030;7.584;2024-03-08T01:32:11;99024.72;;;0.95;67.68
79250;BME280;68679;51.030;7.584;2024-03-08T01:34:37;99020.16;;;0.97;68.64
79250;BME280;68679;51.030;7.584;2024-03-08T01:37:02;99012.84;;;0.94;68.09
79250;BME280;68679;51.030;7.584;2024-03-08T01:39:27;99010.88;;;0.89;67.96
79250;BME280;68679;51.030;7.584;2024-03-08T01:41:53;99004.13;;;0.88;68.39
79250;BME280;68679;51.030;7.584;2024-03-08T01:44:19;99007.09;;;0.92;68.06
79250;BME280;68679;51.030;7.584;2024-03-08T01:46:45;98996.97;;;0.90;68.02
79250;BME280;68679;51.030;7.584;2024-03-08T01:49:11;98997.59;;;0.86;68.01
79250;BME280;68679;51.030;7.584;2024-03-08T01:51:38;98998.41;;;0.86;68.08
79250;BME280;68679;51.030;7.584;2024-03-08T01:54:05;98993.03;;;0.88;67.94
79250;BME280;68679;51.030;7.584;2024-03-08T01:56:31;98986.84;;;0.89;68.05
79250;BME280;68679;51.030;7.584;2024-03-08T01:58:58;98986.28;;;0.87;68.05
79250;BME280;68679;51.030;7.584;2024-03-08T02:01:24;98984.72;;;0.86;68.19
79250;BME280;68679;51.030;7.584;2024-03-08T02:03:50;98974.78;;;0.83;68.29
79250;BME280;68679;51.030;7.584;2024-03-08T02:06:15;98981.16;;;0.80;68.44
79250;BME280;68679;51.030;7.584;2024-03-08T02:08:42;98977.78;;;0.79;68.07
79250;BME280;68679;51.030;7.584;2024-03-08T02:11:10;98976.00;;;0.80;68.15
79250;BME280;68679;51.030;7.584;2024-03-08T02:13:35;98977.78;;;0.79;68.18
79250;BME280;68679;51.030;7.584;2024-03-08T02:16:00;98965.06;;;0.78;67.96
79250;BME280;68679;51.030;7.584;2024-03-08T02:18:27;98964.28;;;0.77;67.97
79250;BME280;68679;51.030;7.584;2024-03-08T02:20:54;98968.31;;;0.73;68.29
79250;BME280;68679;51.030;7.584;2024-03-08T02:23:20;98967.88;;;0.76;68.14
79250;BME280;68679;51.030;7.584;2024-03-08T02:25:46;98967.31;;;0.74;68.31
79250;BME280;68679;51.030;7.584;2024-03-08T02:28:12;98962.94;;;0.75;68.06
79250;BME280;68679;51.030;7.584;2024-03-08T02:30:38;98961.94;;;0.76;68.41
79250;BME280;68679;51.030;7.584;2024-03-08T02:33:07;98954.63;;;0.73;68.73
79250;BME280;68679;51.030;7.584;2024-03-08T02:35:35;98959.78;;;0.73;68.40
79250;BME280;68679;51.030;7.584;2024-03-08T02:38:00;98958.78;;;0.74;68.96
79250;BME280;68679;51.030;7.584;2024-03-08T02:40:26;98955.19;;;0.75;68.26
79250;BME280;68679;51.030;7.584;2024-03-08T02:42:51;98959.19;;;0.71;68.90
79250;BME280;68679;51.030;7.584;2024-03-08T02:45:16;98944.47;;;0.71;68.72
79250;BME280;68679;51.030;7.584;2024-03-08T02:47:42;98946.81;;;0.79;68.69
79250;BME280;68679;51.030;7.584;2024-03-08T02:50:07;98946.88;;;0.73;68.91
79250;BME280;68679;51.030;7.584;2024-03-08T02:52:34;98942.50;;;0.73;68.75
79250;BME280;68679;51.030;7.584;2024-03-08T02:55:00;98948.44;;;0.74;68.55
79250;BME280;68679;51.030;7.584;2024-03-08T02:57:25;98948.03;;;0.77;68.72
79250;BME280;68679;51.030;7.584;2024-03-08T02:59:53;98946.66;;;0.74;68.64
79250;BME280;68679;51.030;7.584;2024-03-08T03:02:18;98944.69;;;0.70;68.52
79250;BME280;68679;51.030;7.584;2024-03-08T03:04:44;98941.72;;;0.73;68.57
79250;BME280;68679;51.030;7.584;2024-03-08T03:07:09;98932.00;;;0.68;68.63
79250;BME280;68679;51.030;7.584;2024-03-08T03:09:34;98929.44;;;0.68;68.61
79250;BME280;68679;51.030;7.584;2024-03-08T03:12:00;98929.22;;;0.70;68.81
79250;BME280;68679;51.030;7.584;2024-03-08T03:14:25;98931.78;;;0.70;68.51
79250;BME280;68679;51.030;7.584;2024-03-08T03:16:53;98919.91;;;0.69;68.51
79250;BME280;68679;51.030;7.584;2024-03-08T03:19:19;98926.06;;;0.68;68.28
79250;BME280;68679;51.030;7.584;2024-03-08T03:21:45;98921.69;;;0.68;68.34
79250;BME280;68679;51.030;7.584;2024-03-08T03:24:10;98926.47;;;0.65;68.45
79250;BME280;68679;51.030;7.584;2024-03-08T03:26:36;98922.88;;;0.66;68.34
79250;BME280;68679;51.030;7.584;2024-03-08T03:29:05;98921.53;;;0.63;68.74
79250;BME280;68679;51.030;7.584;2024-03-08T03:31:31;98918.38;;;0.61;68.63
79250;BME280;68679;51.030;7.584;2024-03-08T03:33:56;98914.00;;;0.62;68.29
79250;BME280;68679;51.030;7.584;2024-03-08T03:36:27;98912.03;;;0.57;68.39
79250;BME280;68679;51.030;7.584;2024-03-08T03:38:53;98914.84;;;0.56;68.41
79250;BME280;68679;51.030;7.584;2024-03-08T03:41:29;98906.88;;;0.57;68.47
79250;BME280;68679;51.030;7.584;2024-03-08T03:43:54;98914.66;;;0.50;68.48
79250;BME280;68679;51.030;7.584;2024-03-08T03:46:20;98903.56;;;0.50;68.77
79250;BME280;68679;51.030;7.584;2024-03-08T03:48:45;98906.31;;;0.48;68.63
79250;BME280;68679;51.030;7.584;2024-03-08T03:51:11;98904.41;;;0.44;68.58
79250;BME280;68679;51.030;7.584;2024-03-08T03:53:37;98903.78;;;0.42;68.67
79250;BME280;68679;51.030;7.584;2024-03-08T03:56:03;98911.13;;;0.45;68.25
79250;BME280;68679;51.030;7.584;2024-03-08T03:58:32;98915.72;;;0.43;68.65
79250;BME280;68679;51.030;7.584;2024-03-08T04:00:57;98911.53;;;0.42;68.19
79250;BME280;68679;51.030;7.584;2024-03-08T04:03:23;98904.78;;;0.41;68.28
79250;BME280;68679;51.030;7.584;2024-03-08T04:05:48;98894.69;;;0.39;68.46
79250;BME280;68679;51.030;7.584;2024-03-08T04:08:14;98896.69;;;0.37;68.68
79250;BME280;68679;51.030;7.584;2024-03-08T04:10:39;98892.72;;;0.35;68.69
79250;BME280;68679;51.030;7.584;2024-03-08T04:13:07;98892.16;;;0.33;68.62
79250;BME280;68679;51.030;7.584;2024-03-08T04:15:32;98889.56;;;0.33;68.79
79250;BME280;68679;51.030;7.584;2024-03-08T04:17:58;98886.44;;;0.31;68.49
79250;BME280;68679;51.030;7.584;2024-03-08T04:20:25;98886.78;;;0.34;68.55
79250;BME280;68679;51.030;7.584;2024-03-08T04:22:50;98894.34;;;0.29;68.80
79250;BME280;68679;51.030;7.584;2024-03-08T04:25:16;98890.97;;;0.29;68.65
79250;BME280;68679;51.030;7.584;2024-03-08T04:27:41;98896.34;;;0.27;68.71
79250;BME280;68679;51.030;7.584;2024-03-08T04:30:07;98892.19;;;0.26;68.73
79250;BME280;68679;51.030;7.584;2024-03-08T04:32:32;98894.00;;;0.25;68.79
79250;BME280;68679;51.030;7.584;2024-03-08T04:34:58;98896.75;;;0.24;68.55
79250;BME280;68679;51.030;7.584;2024-03-08T04:37:23;98897.97;;;0.21;68.96
79250;BME280;68679;51.030;7.584;2024-03-08T04:39:48;98884.28;;;0.21;68.67
79250;BME280;68679;51.030;7.584;2024-03-08T04:42:14;98877.56;;;0.20;68.53
79250;BME280;68679;51.030;7.584;2024-03-08T04:44:40;98882.13;;;0.18;68.57
79250;BME280;68679;51.030;7.584;2024-03-08T04:47:06;98877.78;;;0.18;68.59
79250;BME280;68679;51.030;7.584;2024-03-08T04:49:32;98872.41;;;0.20;68.70
79250;BME280;68679;51.030;7.584;2024-03-08T04:52:03;98876.59;;;0.14;68.50
79250;BME280;68679;51.030;7.584;2024-03-08T04:54:29;98868.44;;;0.17;68.71
79250;BME280;68679;51.030;7.584;2024-03-08T04:56:55;98869.88;;;0.13;68.36
79250;BME280;68679;51.030;7.584;2024-03-08T04:59:20;98872.28;;;0.08;68.78
79250;BME280;68679;51.030;7.584;2024-03-08T05:01:46;98875.25;;;0.05;68.58
79250;BME280;68679;51.030;7.584;2024-03-08T05:04:12;98870.47;;;0.09;68.73
79250;BME280;68679;51.030;7.584;2024-03-08T05:06:37;98866.31;;;0.08;68.56
79250;BME280;68679;51.030;7.584;2024-03-08T05:09:03;98862.19;;;0.07;68.48
79250;BME280;68679;51.030;7.584;2024-03-08T05:11:42;98854.25;;;0.02;68.53
79250;BME280;68679;51.030;7.584;2024-03-08T05:14:08;98862.81;;;-0.05;68.67
79250;BME280;68679;51.030;7.584;2024-03-08T05:16:33;98859.81;;;-0.02;68.56
79250;BME280;68679;51.030;7.584;2024-03-08T05:18:59;98847.53;;;-0.06;68.66
79250;BME280;68679;51.030;7.584;2024-03-08T05:21:24;98852.13;;;-0.08;68.54
79250;BME280;68679;51.030;7.584;2024-03-08T05:23:50;98854.69;;;-0.08;68.72
79250;BME280;68679;51.030;7.584;2024-03-08T05:26:16;98843.22;;;-0.06;68.78
79250;BME280;68679;51.030;7.584;2024-03-08T05:28:41;98845.97;;;-0.07;68.75
79250;BME280;68679;51.030;7.584;2024-03-08T05:31:07;98847.41;;;-0.11;68.63
79250;BME280;68679;51.030;7.584;2024-03-08T05:33:32;98852.72;;;-0.13;68.92
79250;BME280;68679;51.030;7.584;2024-03-08T05:36:00;98846.97;;;-0.08;68.63
79250;BME280;68679;51.030;7.584;2024-03-08T05:38:26;98853.13;;;-0.09;68.88
79250;BME280;68679;51.030;7.584;2024-03-08T05:40:51;98841.03;;;-0.09;68.89
79250;BME280;68679;51.030;7.584;2024-03-08T05:43:16;98845.00;;;-0.13;69.08
79250;BME280;68679;51.030;7.584;2024-03-08T05:45:45;98846.00;;;-0.14;68.91
79250;BME280;68679;51.030;7.584;2024-03-08T05:48:10;98846.00;;;-0.14;68.73
79250;BME280;68679;51.030;7.584;2024-03-08T05:50:37;98839.50;;;-0.16;68.86
79250;BME280;68679;51.030;7.584;2024-03-08T05:53:04;98837.91;;;-0.17;68.78
79250;BME280;68679;51.030;7.584;2024-03-08T05:55:32;98836.53;;;-0.20;68.99
79250;BME280;68679;51.030;7.584;2024-03-08T05:58:00;98830.78;;;-0.22;68.96
79250;BME280;68679;51.030;7.584;2024-03-08T06:00:26;98829.41;;;-0.24;68.99
79250;BME280;68679;51.030;7.584;2024-03-08T06:02:52;98838.31;;;-0.20;68.82
79250;BME280;68679;51.030;7.584;2024-03-08T06:05:17;98830.78;;;-0.22;69.03
79250;BME280;68679;51.030;7.584;2024-03-08T06:07:42;98827.66;;;-0.24;69.62
79250;BME280;68679;51.030;7.584;2024-03-08T06:10:11;98816.91;;;-0.21;69.29
79250;BME280;68679;51.030;7.584;2024-03-08T06:12:39;98822.50;;;-0.24;69.34
79250;BME280;68679;51.030;7.584;2024-03-08T06:15:09;98827.25;;;-0.28;69.40
79250;BME280;68679;51.030;7.584;2024-03-08T06:17:38;98830.22;;;-0.24;69.18
79250;BME280;68679;51.030;7.584;2024-03-08T06:20:03;98820.88;;;-0.25;69.43
79250;BME280;68679;51.030;7.584;2024-03-08T06:22:35;98824.84;;;-0.22;69.46
79250;BME280;68679;51.030;7.584;2024-03-08T06:25:03;98824.84;;;-0.22;69.27
79250;BME280;68679;51.030;7.584;2024-03-08T06:27:29;98825.84;;;-0.23;69.57
79250;BME280;68679;51.030;7.584;2024-03-08T06:29:54;98828.00;;;-0.20;69.72
79250;BME280;68679;51.030;7.584;2024-03-08T06:32:19;98810.97;;;-0.21;69.46
79250;BME280;68679;51.030;7.584;2024-03-08T06:34:45;98816.69;;;-0.19;70.09
79250;BME280;68679;51.030;7.584;2024-03-08T06:37:10;98818.88;;;-0.16;69.68
79250;BME280;68679;51.030;7.584;2024-03-08T06:39:35;98809.75;;;-0.19;70.01
79250;BME280;68679;51.030;7.584;2024-03-08T06:42:01;98815.69;;;-0.18;69.73
79250;BME280;68679;51.030;7.584;2024-03-08T06:44:26;98818.09;;;-0.17;70.08
79250;BME280;68679;51.030;7.584;2024-03-08T06:46:52;98813.28;;;-0.13;69.75
79250;BME280;68679;51.030;7.584;2024-03-08T06:49:17;98804.56;;;-0.12;70.03
79250;BME280;68679;51.030;7.584;2024-03-08T06:51:42;98806.75;;;-0.09;70.35
79250;BME280;68679;51.030;7.584;2024-03-08T06:54:08;98808.53;;;-0.10;70.05
79250;BME280;68679;51.030;7.584;2024-03-08T06:56:34;98812.06;;;-0.04;70.49
79250;BME280;68679;51.030;7.584;2024-03-08T06:59:00;98808.09;;;0.00;70.17
79250;BME280;68679;51.030;7.584;2024-03-08T07:01:25;98811.25;;;0.02;70.38
79250;BME280;68679;51.030;7.584;2024-03-08T07:03:53;98808.88;;;0.01;70.74
79250;BME280;68679;51.030;7.584;2024-03-08T07:06:18;98816.75;;;0.06;70.51
79250;BME280;68679;51.030;7.584;2024-03-08T07:08:45;98812.19;;;0.08;70.49
79250;BME280;68679;51.030;7.584;2024-03-08T07:11:11;98806.81;;;0.09;70.56
79250;BME280;68679;51.030;7.584;2024-03-08T07:13:37;98802.25;;;0.11;70.68
79250;BME280;68679;51.030;7.584;2024-03-08T07:16:04;98814.16;;;0.12;70.51
79250;BME280;68679;51.030;7.584;2024-03-08T07:18:30;98804.00;;;0.17;71.15
79250;BME280;68679;51.030;7.584;2024-03-08T07:20:55;98808.75;;;0.20;71.35
79250;BME280;68679;51.030;7.584;2024-03-08T07:23:21;98810.09;;;0.23;71.20
79250;BME280;68679;51.030;7.584;2024-03-08T07:26:04;98802.75;;;0.26;71.44
79250;BME280;68679;51.030;7.584;2024-03-08T07:28:30;98800.53;;;0.30;71.69
79250;BME280;68679;51.030;7.584;2024-03-08T07:30:56;98800.34;;;0.32;70.93
79250;BME280;68679;51.030;7.584;2024-03-08T07:33:34;98800.28;;;0.38;71.58
79250;BME280;68679;51.030;7.584;2024-03-08T07:36:00;98800.22;;;0.45;71.82
79250;BME280;68679;51.030;7.584;2024-03-08T07:38:26;98792.06;;;0.48;71.70
79250;BME280;68679;51.030;7.584;2024-03-08T07:40:51;98794.00;;;0.52;72.23
79250;BME280;68679;51.030;7.584;2024-03-08T07:43:17;98784.25;;;0.54;71.48
79250;BME280;68679;51.030;7.584;2024-03-08T07:45:42;98777.13;;;0.57;71.82
79250;BME280;68679;51.030;7.584;2024-03-08T07:48:08;98777.69;;;0.59;72.05
79250;BME280;68679;51.030;7.584;2024-03-08T07:50:36;98775.25;;;0.64;71.82
79250;BME280;68679;51.030;7.584;2024-03-08T07:53:02;98776.63;;;0.66;72.13
79250;BME280;68679;51.030;7.584;2024-03-08T07:55:28;98781.94;;;0.71;71.99
79250;BME280;68679;51.030;7.584;2024-03-08T07:57:56;98772.63;;;0.70;72.07
79250;BME280;68679;51.030;7.584;2024-03-08T08:00:21;98777.72;;;0.77;72.02
79250;BME280;68679;51.030;7.584;2024-03-08T08:02:46;98770.34;;;0.80;71.99
79250;BME280;68679;51.030;7.584;2024-03-08T08:05:17;98774.88;;;0.85;72.17
79250;BME280;68679;51.030;7.584;2024-03-08T08:07:46;98766.69;;;0.88;71.96
79250;BME280;68679;51.030;7.584;2024-03-08T08:10:12;98765.25;;;0.92;72.30
79250;BME280;68679;51.030;7.584;2024-03-08T08:12:44;98759.09;;;0.93;71.91
79250;BME280;68679;51.030;7.584;2024-03-08T08:15:09;98755.88;;;0.98;72.27
79250;BME280;68679;51.030;7.584;2024-03-08T08:17:34;98757.00;;;1.02;72.42
79250;BME280;68679;51.030;7.584;2024-03-08T08:20:00;98762.53;;;1.05;72.08
79250;BME280;68679;51.030;7.584;2024-03-08T08:22:25;98751.97;;;1.07;72.07
79250;BME280;68679;51.030;7.584;2024-03-08T08:24:51;98747.59;;;1.07;72.10
79250;BME280;68679;51.030;7.584;2024-03-08T08:27:17;98748.97;;;1.10;72.34
79250;BME280;68679;51.030;7.584;2024-03-08T08:29:42;98751.50;;;1.17;72.23
79250;BME280;68679;51.030;7.584;2024-03-08T08:32:08;98747.03;;;1.24;72.07
79250;BME280;68679;51.030;7.584;2024-03-08T08:34:35;98738.28;;;1.25;72.40
79250;BME280;68679;51.030;7.584;2024-03-08T08:37:01;98737.41;;;1.31;72.27
79250;BME280;68679;51.030;7.584;2024-03-08T08:39:26;98729.22;;;1.34;72.38
79250;BME280;68679;51.030;7.584;2024-03-08T08:41:52;98731.94;;;1.39;72.44
79250;BME280;68679;51.030;7.584;2024-03-08T08:44:18;98727.91;;;1.43;72.30
79250;BME280;68679;51.030;7.584;2024-03-08T08:46:43;98730.63;;;1.48;72.22
79250;BME280;68679;51.030;7.584;2024-03-08T08:49:09;98728.19;;;1.53;72.23
79250;BME280;68679;51.030;7.584;2024-03-08T08:51:39;98720.75;;;1.57;72.28
79250;BME280;68679;51.030;7.584;2024-03-08T08:54:04;98731.22;;;1.62;72.32
79250;BME280;68679;51.030;7.584;2024-03-08T08:56:31;98708.88;;;1.68;72.23
79250;BME280;68679;51.030;7.584;2024-03-08T08:58:56;98708.22;;;1.72;72.42
79250;BME280;68679;51.030;7.584;2024-03-08T09:01:23;98710.94;;;1.77;72.03
79250;BME280;68679;51.030;7.584;2024-03-08T09:03:48;98704.09;;;1.83;72.06
79250;BME280;68679;51.030;7.584;2024-03-08T09:06:15;98706.00;;;1.87;71.99
79250;BME280;68679;51.030;7.584;2024-03-08T09:08:41;98698.38;;;1.93;71.79
79250;BME280;68679;51.030;7.584;2024-03-08T09:11:06;98699.28;;;1.98;72.02
79250;BME280;68679;51.030;7.584;2024-03-08T09:13:32;98694.22;;;2.03;71.89
79250;BME280;68679;51.030;7.584;2024-03-08T09:16:02;98694.13;;;2.10;72.49
79250;BME280;68679;51.030;7.584;2024-03-08T09:18:30;98687.50;;;2.14;72.45
79250;BME280;68679;51.030;7.584;2024-03-08T09:20:55;98689.97;;;2.21;72.44
79250;BME280;68679;51.030;7.584;2024-03-08T09:23:21;98678.72;;;2.27;73.03
79250;BME280;68679;51.030;7.584;2024-03-08T09:25:46;98685.34;;;2.34;72.87
79250;BME280;68679;51.030;7.584;2024-03-08T09:28:12;98685.47;;;2.39;72.43
79250;BME280;68679;51.030;7.584;2024-03-08T09:30:38;98676.56;;;2.47;72.21
79250;BME280;68679;51.030;7.584;2024-03-08T09:33:04;98677.47;;;2.53;72.72
79250;BME280;68679;51.030;7.584;2024-03-08T09:35:29;98668.00;;;2.58;72.11
79250;BME280;68679;51.030;7.584;2024-03-08T09:37:55;98681.59;;;2.65;72.02
79250;BME280;68679;51.030;7.584;2024-03-08T09:40:21;98670.81;;;2.68;72.42
79250;BME280;68679;51.030;7.584;2024-03-08T09:42:49;98666.53;;;2.74;71.67
79250;BME280;68679;51.030;7.584;2024-03-08T09:45:14;98660.44;;;2.80;71.77
79250;BME280;68679;51.030;7.584;2024-03-08T09:47:41;98655.91;;;2.87;71.43
79250;BME280;68679;51.030;7.584;2024-03-08T09:50:07;98648.00;;;2.94;71.27
79250;BME280;68679;51.030;7.584;2024-03-08T09:52:41;98651.47;;;3.00;71.55
79250;BME280;68679;51.030;7.584;2024-03-08T09:55:09;98638.84;;;3.03;71.82
79250;BME280;68679;51.030;7.584;2024-03-08T09:57:36;98638.25;;;3.13;71.47
79250;BME280;68679;51.030;7.584;2024-03-08T10:00:03;98633.47;;;3.21;71.15
79250;BME280;68679;51.030;7.584;2024-03-08T10:02:37;98635.94;;;3.28;71.19
79250;BME280;68679;51.030;7.584;2024-03-08T10:05:02;98636.56;;;3.35;71.36
79250;BME280;68679;51.030;7.584;2024-03-08T10:07:28;98628.31;;;3.38;71.07
79250;BME280;68679;51.030;7.584;2024-03-08T10:09:54;98621.97;;;3.46;70.97
79250;BME280;68679;51.030;7.584;2024-03-08T10:12:19;98628.56;;;3.54;71.20
79250;BME280;68679;51.030;7.584;2024-03-08T10:14:45;98624.25;;;3.59;70.73
79250;BME280;68679;51.030;7.584;2024-03-08T10:17:11;98625.34;;;3.63;71.33
79250;BME280;68679;51.030;7.584;2024-03-08T10:19:37;98612.22;;;3.70;70.58
79250;BME280;68679;51.030;7.584;2024-03-08T10:22:02;98617.50;;;3.75;71.30
79250;BME280;68679;51.030;7.584;2024-03-08T10:24:30;98612.63;;;3.79;70.40
79250;BME280;68679;51.030;7.584;2024-03-08T10:26:59;98608.59;;;3.88;70.72
79250;BME280;68679;51.030;7.584;2024-03-08T10:29:25;98605.06;;;3.94;70.68
79250;BME280;68679;51.030;7.584;2024-03-08T10:31:51;98599.16;;;3.98;70.61
79250;BME280;68679;51.030;7.584;2024-03-08T10:34:16;98594.84;;;4.04;70.09
79250;BME280;68679;51.030;7.584;2024-03-08T10:36:45;98589.47;;;4.11;69.82
79250;BME280;68679;51.030;7.584;2024-03-08T10:39:22;98584.09;;;4.17;69.67
79250;BME280;68679;51.030;7.584;2024-03-08T10:41:53;98576.94;;;4.24;69.49
79250;BME280;68679;51.030;7.584;2024-03-08T10:44:40;98573.63;;;4.29;70.04
79250;BME280;68679;51.030;7.584;2024-03-08T10:47:15;98575.25;;;4.35;69.79
79250;BME280;68679;51.030;7.584;2024-03-08T10:52:41;98559.81;;;4.45;69.60
79250;BME280;68679;51.030;7.584;2024-03-08T10:55:07;98555.44;;;4.51;69.39
79250;BME280;68679;51.030;7.584;2024-03-08T10:57:38;98550.53;;;4.54;69.89
79250;BME280;68679;51.030;7.584;2024-03-08T11:00:04;98545.19;;;4.61;69.10
79250;BME280;68679;51.030;7.584;2024-03-08T11:02:34;98544.44;;;4.66;69.31
79250;BME280;68679;51.030;7.584;2024-03-08T11:05:02;98545.78;;;4.68;69.60
79250;BME280;68679;51.030;7.584;2024-03-08T11:07:33;98540.38;;;4.75;68.72
79250;BME280;68679;51.030;7.584;2024-03-08T11:10:02;98530.06;;;4.80;69.54
79250;BME280;68679;51.030;7.584;2024-03-08T11:12:30;98533.47;;;4.86;70.17
79250;BME280;68679;51.030;7.584;2024-03-08T11:15:02;98534.53;;;4.90;69.37
79250;BME280;68679;51.030;7.584;2024-03-08T11:20:14;98522.75;;;5.04;68.79
79250;BME280;68679;51.030;7.584;2024-03-08T11:22:51;98534.19;;;5.08;68.92
79250;BME280;68679;51.030;7.584;2024-03-08T11:25:39;98532.41;;;5.14;69.46
79250;BME280;68679;51.030;7.584;2024-03-08T11:28:17;98514.53;;;5.17;68.73
79250;BME280;68679;51.030;7.584;2024-03-08T11:33:33;98509.44;;;5.32;68.65
79250;BME280;68679;51.030;7.584;2024-03-08T11:36:22;98508.94;;;5.35;68.24
79250;BME280;68679;51.030;7.584;2024-03-08T11:38:48;98501.19;;;5.41;68.31
79250;BME280;68679;51.030;7.584;2024-03-08T11:41:24;98493.94;;;5.48;68.84
79250;BME280;68679;51.030;7.584;2024-03-08T11:44:02;98491.34;;;5.48;67.88
79250;BME280;68679;51.030;7.584;2024-03-08T11:46:30;98479.94;;;5.54;66.99
79250;BME280;68679;51.030;7.584;2024-03-08T11:48:55;98475.00;;;5.57;67.46
79250;BME280;68679;51.030;7.584;2024-03-08T11:51:22;98475.59;;;5.64;66.81
79250;BME280;68679;51.030;7.584;2024-03-08T11:53:49;98462.84;;;5.68;67.39
79250;BME280;68679;51.030;7.584;2024-03-08T11:56:15;98460.28;;;5.73;65.64
79250;BME280;68679;51.030;7.584;2024-03-08T11:58:41;98464.75;;;5.83;66.39
79250;BME280;68679;51.030;7.584;2024-03-08T12:01:10;98458.75;;;5.87;66.33
79250;BME280;68679;51.030;7.584;2024-03-08T12:03:39;98459.09;;;5.91;66.50
79250;BME280;68679;51.030;7.584;2024-03-08T12:06:07;98458.31;;;5.96;67.25
79250;BME280;68679;51.030;7.584;2024-03-08T12:08:35;98458.59;;;5.99;66.92
79250;BME280;68679;51.030;7.584;2024-03-08T12:11:00;98450.81;;;6.04;67.06
79250;BME280;68679;51.030;7.584;2024-03-08T12:13:27;98455.75;;;6.11;66.52
79250;BME280;68679;51.030;7.584;2024-03-08T12:15:56;98444.59;;;6.15;66.95
79250;BME280;68679;51.030;7.584;2024-03-08T12:18:22;98440.97;;;6.22;66.06
79250;BME280;68679;51.030;7.584;2024-03-08T12:20:48;98453.44;;;6.25;66.74
79250;BME280;68679;51.030;7.584;2024-03-08T12:23:15;98451.91;;;6.29;65.51
79250;BME280;68679;51.030;7.584;2024-03-08T12:25:44;98456.34;;;6.33;65.52
79250;BME280;68679;51.030;7.584;2024-03-08T12:28:11;98431.63;;;6.36;65.74
79250;BME280;68679;51.030;7.584;2024-03-08T12:30:49;98433.72;;;6.39;66.30
79250;BME280;68679;51.030;7.584;2024-03-08T12:33:16;98435.56;;;6.43;66.56
79250;BME280;68679;51.030;7.584;2024-03-08T12:35:50;98424.34;;;6.48;65.75
79250;BME280;68679;51.030;7.584;2024-03-08T12:38:23;98412.63;;;6.51;66.16
79250;BME280;68679;51.030;7.584;2024-03-08T12:40:55;98415.00;;;6.57;65.61
79250;BME280;68679;51.030;7.584;2024-03-08T12:43:20;98423.84;;;6.61;66.46
79250;BME280;68679;51.030;7.584;2024-03-08T12:45:46;98421.50;;;6.65;65.52
79250;BME280;68679;51.030;7.584;2024-03-08T12:48:13;98413.69;;;6.70;65.10
79250;BME280;68679;51.030;7.584;2024-03-08T12:50:40;98417.06;;;6.76;65.44
79250;BME280;68679;51.030;7.584;2024-03-08T12:53:06;98405.09;;;6.80;64.94
79250;BME280;68679;51.030;7.584;2024-03-08T12:55:32;98402.75;;;6.83;64.93
79250;BME280;68679;51.030;7.584;2024-03-08T12:57:58;98401.19;;;6.87;64.15
79250;BME280;68679;51.030;7.584;2024-03-08T13:00:25;98399.34;;;6.93;64.63
79250;BME280;68679;51.030;7.584;2024-03-08T13:02:53;98391.25;;;6.94;63.86
79250;BME280;68679;51.030;7.584;2024-03-08T13:05:18;98387.59;;;7.01;64.53
79250;BME280;68679;51.030;7.584;2024-03-08T13:07:45;98382.91;;;7.03;63.57
79250;BME280;68679;51.030;7.584;2024-03-08T13:10:14;98390.44;;;7.09;63.41
79250;BME280;68679;51.030;7.584;2024-03-08T13:12:44;98394.88;;;7.14;63.54
79250;BME280;68679;51.030;7.584;2024-03-08T13:15:10;98389.16;;;7.17;63.62
79250;BME280;68679;51.030;7.584;2024-03-08T13:17:40;98387.31;;;7.22;63.14